Time;durP1;ratioP1;P1;durP2;ratioP2;P2;SDS_P1;SDS_P2;PMS_P1;PMS_P2;Temp;Humidity;BMP_temperature;BMP_pressure;BME280_temperature;BME280_humidity;BME280_pressure;Samples;Min_cycle;Max_cycle;Signal;HPM_P1;HPM_P2
2023/06/03 00:02:31;;;;;;;4.70;1.60;;;;;;;7.66;62.46;101275.30;221697;1264;139284;-88
2023/06/03 00:07:31;;;;;;;3.20;1.40;;;;;;;7.59;62.61;101277.08;222054;1264;137204;-86
2023/06/03 00:12:31;;;;;;;3.90;1.20;;;;;;;7.53;62.95;101278.36;221434;1264;140815;-89
2023/06/03 00:17:33;;;;;;;4.60;1.40;;;;;;;7.47;63.33;101281.25;221871;1264;137746;-87
2023/06/03 00:22:37;;;;;;;2.40;0.90;;;;;;;7.41;63.56;101284.33;221578;1264;138356;-88
2023/06/03 00:27:38;;;;;;;4.40;1.00;;;;;;;7.36;63.64;101290.08;221999;1264;108420;-87
2023/06/03 00:32:39;;;;;;;2.30;1.00;;;;;;;7.30;64.07;101292.06;221528;1264;137883;-85
2023/06/03 00:37:40;;;;;;;3.40;1.10;;;;;;;7.25;64.13;101294.51;222102;1269;137336;-86
2023/06/03 00:42:40;;;;;;;3.10;1.30;;;;;;;7.19;64.76;101298.80;221357;1264;138747;-86
2023/06/03 00:47:41;;;;;;;2.90;1.20;;;;;;;7.10;64.94;101298.48;221941;1264;137106;-86
2023/06/03 00:52:43;;;;;;;3.90;0.90;;;;;;;7.02;65.75;101299.57;221590;1268;139519;-87
2023/06/03 00:57:45;;;;;;;4.30;1.30;;;;;;;6.95;66.11;101299.08;222427;1264;95223;-86
2023/06/03 01:02:46;;;;;;;4.60;1.40;;;;;;;6.88;66.29;101299.23;221512;1264;138329;-84
2023/06/03 01:08:01;;;;;;;5.20;1.20;;;;;;;6.82;66.84;101302.46;222258;1264;136937;-86
2023/06/03 01:13:24;;;;;;;3.80;1.30;;;;;;;6.75;67.74;101301.05;221745;1268;138748;-86
2023/06/03 01:18:25;;;;;;;2.70;1.00;;;;;;;6.69;68.19;101301.92;222016;1264;138152;-85
2023/06/03 01:23:33;;;;;;;2.80;1.10;;;;;;;6.65;68.40;101306.19;221739;1264;138568;-86
2023/06/03 01:28:34;;;;;;;2.80;1.10;;;;;;;6.61;68.95;101306.60;222238;1264;137280;-86
2023/06/03 01:33:35;;;;;;;4.00;1.10;;;;;;;6.58;68.78;101313.02;221742;1264;138840;-86
2023/06/03 01:38:36;;;;;;;3.40;1.00;;;;;;;6.54;69.39;101319.55;221918;1264;137295;-84
2023/06/03 01:43:36;;;;;;;3.00;1.00;;;;;;;6.49;69.94;101323.73;221532;1264;138956;-83
2023/06/03 01:48:37;;;;;;;5.80;1.00;;;;;;;6.44;70.55;101324.61;222247;1264;137067;-86
2023/06/03 01:53:38;;;;;;;4.30;1.60;;;;;;;6.40;70.98;101329.69;221495;1264;139035;-85
2023/06/03 01:58:46;;;;;;;2.90;0.80;;;;;;;6.35;70.75;101331.42;221990;1264;137104;-87
2023/06/03 02:03:47;;;;;;;2.40;0.90;;;;;;;6.32;71.43;101340.73;221904;1264;223911;-85
2023/06/03 02:08:47;;;;;;;3.50;1.10;;;;;;;6.28;71.68;101340.05;221695;1264;138455;-87
2023/06/03 02:13:48;;;;;;;2.10;1.00;;;;;;;6.24;71.42;101341.21;221940;1264;138670;-86
2023/06/03 02:18:48;;;;;;;5.40;1.30;;;;;;;6.21;72.15;101342.02;221393;1268;138627;-86
2023/06/03 02:23:48;;;;;;;4.00;0.80;;;;;;;6.17;72.53;101342.00;222079;1264;137257;-83
2023/06/03 02:28:49;;;;;;;4.00;1.00;;;;;;;6.10;73.41;101350.05;221525;1264;139805;-85
2023/06/03 02:33:49;;;;;;;2.90;0.80;;;;;;;6.06;73.64;101359.84;222191;1264;95171;-86
2023/06/03 02:38:50;;;;;;;1.80;0.90;;;;;;;6.00;73.51;101365.60;221614;1264;144283;-87
2023/06/03 02:43:50;;;;;;;3.50;1.00;;;;;;;5.96;73.93;101370.20;221915;1268;137751;-84
2023/06/03 02:48:51;;;;;;;3.20;0.90;;;;;;;5.93;74.86;101369.89;221720;1264;140473;-86
2023/06/03 02:53:51;;;;;;;2.90;1.10;;;;;;;5.89;75.61;101367.77;222306;1264;137987;-83
2023/06/03 02:58:52;;;;;;;3.40;1.00;;;;;;;5.86;75.86;101364.58;221427;1264;144488;-86
2023/06/03 03:03:53;;;;;;;4.60;1.10;;;;;;;5.86;77.00;101373.02;221910;1264;138294;-85
2023/06/03 03:08:53;;;;;;;2.30;0.90;;;;;;;5.85;77.25;101378.73;221923;1264;141640;-85
2023/06/03 03:13:55;;;;;;;6.90;1.30;;;;;;;5.85;77.32;101382.17;222117;1264;138257;-85
2023/06/03 03:18:55;;;;;;;2.80;1.00;;;;;;;5.85;77.91;101379.27;221764;1266;143758;-84
2023/06/03 03:23:55;;;;;;;3.70;1.00;;;;;;;5.85;77.67;101384.83;221986;1264;139620;-84
2023/06/03 03:28:56;;;;;;;5.80;1.30;;;;;;;5.85;78.24;101386.63;221507;1264;139990;-86
2023/06/03 03:33:57;;;;;;;4.50;1.00;;;;;;;5.86;78.57;101387.50;222196;1264;138147;-87
2023/06/03 03:39:05;;;;;;;3.20;1.00;;;;;;;5.86;78.58;101399.23;221480;1263;139797;-85
2023/06/03 03:44:05;;;;;;;3.40;1.70;;;;;;;5.89;78.86;101400.69;221867;1264;138475;-85
2023/06/03 03:49:06;;;;;;;4.50;1.10;;;;;;;5.91;79.05;101395.52;221805;1264;139872;-84
2023/06/03 03:54:06;;;;;;;3.80;1.20;;;;;;;5.94;79.47;101399.91;222091;1264;138044;-84
2023/06/03 03:59:07;;;;;;;1.80;0.80;;;;;;;5.97;79.86;101406.20;221596;1264;139840;-80
2023/06/03 04:04:10;;;;;;;2.90;1.00;;;;;;;6.01;80.48;101405.86;222077;1264;139843;-82
2023/06/03 04:09:11;;;;;;;4.10;1.30;;;;;;;6.08;80.32;101403.81;221605;1264;139446;-84
2023/06/03 04:14:15;;;;;;;3.50;1.00;;;;;;;6.15;80.37;101404.14;222291;1264;138053;-83
2023/06/03 04:19:20;;;;;;;2.20;1.00;;;;;;;6.24;81.02;101404.66;221671;1264;140012;-83
2023/06/03 04:24:20;;;;;;;8.40;1.20;;;;;;;6.34;80.86;101411.05;221870;1264;138124;-82
2023/06/03 04:29:22;;;;;;;5.50;1.10;;;;;;;6.45;80.85;101416.40;221726;1264;140000;-83
2023/06/03 04:34:26;;;;;;;2.70;1.00;;;;;;;6.55;80.72;101416.82;222249;1268;138003;-84
2023/06/03 04:39:27;;;;;;;3.10;0.90;;;;;;;6.64;80.44;101419.02;221842;1264;139991;-82
2023/06/03 04:44:28;;;;;;;2.40;1.00;;;;;;;6.74;80.51;101413.64;222227;1264;137782;-83
2023/06/03 04:49:31;;;;;;;4.10;1.10;;;;;;;6.82;79.96;101419.91;221735;1264;141244;-84
2023/06/03 04:54:32;;;;;;;3.20;0.70;;;;;;;6.92;79.95;101428.55;222058;1264;138790;-82
2023/06/03 04:59:33;;;;;;;2.90;0.80;;;;;;;7.04;79.78;101430.32;221724;1268;139816;-85
2023/06/03 05:04:34;;;;;;;3.70;1.40;;;;;;;7.20;79.75;101431.20;222103;1264;138492;-84
2023/06/03 05:09:34;;;;;;;6.50;1.20;;;;;;;7.37;79.46;101431.34;221844;1264;139633;-85
2023/06/03 05:14:35;;;;;;;3.30;1.10;;;;;;;7.58;79.34;101432.23;222063;1264;138143;-83
2023/06/03 05:19:35;;;;;;;3.00;1.10;;;;;;;7.90;78.75;101431.06;221749;1264;139255;-86
2023/06/03 05:24:36;;;;;;;2.20;0.80;;;;;;;8.35;78.86;101429.62;222111;1264;138000;-87
2023/06/03 05:29:36;;;;;;;2.80;0.70;;;;;;;8.96;78.12;101426.02;221601;1264;138828;-86
2023/06/03 05:34:37;;;;;;;4.30;1.00;;;;;;;9.76;76.67;101431.19;221905;1264;137992;-85
2023/06/03 05:39:37;;;;;;;4.20;0.90;;;;;;;10.62;75.46;101432.58;221736;1264;138951;-87
2023/06/03 05:44:38;;;;;;;1.80;0.40;;;;;;;11.56;71.96;101430.17;221920;1264;138079;-85
2023/06/03 05:49:39;;;;;;;2.00;0.60;;;;;;;12.41;69.31;101429.55;221756;1264;139757;-85
2023/06/03 05:54:40;;;;;;;2.80;0.60;;;;;;;13.32;66.46;101427.27;221959;1264;138690;-87
2023/06/03 05:59:40;;;;;;;4.40;0.70;;;;;;;14.05;61.80;101427.79;221496;1264;139356;-85
2023/06/03 06:04:40;;;;;;;3.90;0.80;;;;;;;14.40;58.46;101430.45;222072;1264;137773;-81
2023/06/03 06:09:41;;;;;;;2.80;0.70;;;;;;;14.76;57.80;101428.40;221857;1264;140648;-85
2023/06/03 06:14:41;;;;;;;1.50;0.60;;;;;;;15.58;56.60;101427.76;222071;1264;137452;-84
2023/06/03 06:19:42;;;;;;;4.20;0.70;;;;;;;16.13;54.32;101435.92;221770;1264;140941;-86
2023/06/03 06:24:43;;;;;;;2.30;0.70;;;;;;;16.53;52.60;101437.77;221855;1268;137636;-83
2023/06/03 06:29:43;;;;;;;5.30;0.70;;;;;;;16.77;50.35;101438.48;221754;1264;139780;-84
2023/06/03 06:34:44;;;;;;;1.60;0.60;;;;;;;16.54;48.39;101435.33;222144;1264;157451;-86
2023/06/03 06:39:52;;;;;;;2.30;0.90;;;;;;;16.55;48.87;101432.47;221665;1264;139555;-85
2023/06/03 06:44:52;;;;;;;2.90;0.70;;;;;;;17.22;47.74;101434.94;222137;1264;96523;-85
2023/06/03 06:49:57;;;;;;;1.50;0.70;;;;;;;17.69;46.94;101428.08;221748;1266;140278;-86
2023/06/03 06:54:59;;;;;;;2.40;0.70;;;;;;;18.27;45.75;101426.95;221987;1264;137720;-86
2023/06/03 06:59:59;;;;;;;1.70;0.60;;;;;;;18.91;45.14;101433.70;221347;1264;138013;-86
2023/06/03 07:05:00;;;;;;;2.00;0.70;;;;;;;19.23;43.43;101433.96;222071;1264;137640;-85
2023/06/03 07:10:01;;;;;;;4.40;0.70;;;;;;;19.22;42.48;101433.95;221731;1264;139393;-85
2023/06/03 07:15:03;;;;;;;1.80;0.80;;;;;;;19.20;41.75;101430.39;222291;1264;96456;-86
2023/06/03 07:25:49;;;;;;;1.70;0.60;;;;;;;19.45;39.89;101433.69;221870;1264;124304;-86
2023/06/03 07:30:52;;;;;;;1.40;0.60;;;;;;;19.58;40.29;101431.17;221446;1264;138202;-87
2023/06/03 07:35:57;;;;;;;3.00;0.70;;;;;;;19.91;39.69;101424.84;222015;1264;137715;-87
2023/06/03 07:41:37;;;;;;;2.40;0.80;;;;;;;20.03;38.58;101423.28;221694;1264;140526;-85
2023/06/03 07:46:39;;;;;;;3.10;0.90;;;;;;;20.35;38.60;101420.75;222092;1264;137616;-84
2023/06/03 07:51:43;;;;;;;3.00;1.00;;;;;;;20.63;38.22;101422.02;221668;1264;139203;-85
2023/06/03 07:56:45;;;;;;;2.10;0.70;;;;;;;20.86;36.62;101422.98;221856;1267;138327;-88
2023/06/03 08:01:48;;;;;;;1.20;0.60;;;;;;;21.09;37.01;101419.91;221394;1264;139919;-85
2023/06/03 08:06:56;;;;;;;3.20;0.80;;;;;;;21.66;36.28;101426.70;221992;1264;137723;-87
2023/06/03 08:12:00;;;;;;;2.50;1.00;;;;;;;22.06;34.20;101423.98;221579;1267;141695;-83
2023/06/03 08:17:06;;;;;;;1.90;0.80;;;;;;;21.83;35.38;101432.15;221958;1264;137651;-85
2023/06/03 08:28:05;;;;;;;3.50;0.80;;;;;;;23.21;33.92;101424.16;221204;1264;137817;-88
2023/06/03 08:33:07;;;;;;;3.80;0.50;;;;;;;24.07;33.13;101428.87;221585;1268;139579;-90
2023/06/03 08:38:07;;;;;;;2.30;0.80;;;;;;;24.54;32.89;101426.52;222096;1264;137688;-86
2023/06/03 08:43:11;;;;;;;2.90;0.70;;;;;;;24.61;31.05;101423.19;221443;1264;140580;-87
2023/06/03 08:48:31;;;;;;;1.50;0.50;;;;;;;24.52;30.27;101422.48;221996;1264;137669;-85
2023/06/03 08:53:55;;;;;;;1.40;0.80;;;;;;;25.18;31.53;101418.63;221449;1264;139456;-90
2023/06/03 08:59:00;;;;;;;2.50;1.00;;;;;;;26.36;30.01;101419.19;221538;1264;139579;-88
2023/06/03 09:04:03;;;;;;;3.30;0.60;;;;;;;26.61;29.39;101415.23;221880;1264;137650;-83
2023/06/03 09:09:05;;;;;;;2.90;0.90;;;;;;;26.67;29.41;101412.06;221764;1264;138698;-90
2023/06/03 09:14:08;;;;;;;2.70;0.50;;;;;;;27.45;28.46;101408.14;222198;1264;137563;-91
2023/06/03 09:19:09;;;;;;;3.80;0.80;;;;;;;27.43;26.70;101404.31;221440;1264;140688;-88
2023/06/03 09:24:10;;;;;;;1.60;0.60;;;;;;;27.73;27.79;101393.58;221948;1264;137709;-83
2023/06/03 09:29:17;;;;;;;2.30;0.70;;;;;;;28.41;26.70;101383.53;221515;1264;138292;-90
2023/06/03 09:34:19;;;;;;;6.10;1.10;;;;;;;28.60;27.13;101379.90;222196;1264;137811;-88
2023/06/03 09:39:32;;;;;;;2.10;0.80;;;;;;;28.92;25.99;101379.75;221768;1264;139611;-86
2023/06/03 09:44:40;;;;;;;2.70;1.10;;;;;;;28.90;26.08;101375.64;221768;1266;137446;-86
2023/06/03 09:50:05;;;;;;;4.00;0.90;;;;;;;29.20;25.63;101369.02;221702;1266;139817;-87
2023/06/03 09:55:07;;;;;;;1.80;0.80;;;;;;;29.42;25.77;101369.09;222199;1264;137674;-90
2023/06/03 10:00:12;;;;;;;4.40;1.10;;;;;;;30.36;25.44;101370.92;221347;1264;141465;-83
2023/06/03 10:05:37;;;;;;;2.90;1.00;;;;;;;30.19;24.33;101373.08;222151;1266;137631;-90
2023/06/03 10:10:55;;;;;;;1.50;0.50;;;;;;;30.33;23.94;101370.76;221421;1266;139352;-89
2023/06/03 10:16:01;;;;;;;2.10;0.80;;;;;;;30.82;23.24;101363.72;222220;1265;137622;-91
2023/06/03 10:21:09;;;;;;;2.00;0.60;;;;;;;30.46;22.52;101363.69;221771;1266;139221;-87
2023/06/03 10:26:10;;;;;;;3.80;0.80;;;;;;;30.44;22.57;101359.52;221888;1268;137512;-91
2023/06/03 10:31:16;;;;;;;6.60;1.40;;;;;;;30.71;22.15;101349.70;221286;1265;138804;-88
2023/06/03 10:36:20;;;;;;;3.30;1.20;;;;;;;30.52;22.19;101351.90;221820;1266;137648;-90
2023/06/03 10:41:23;;;;;;;4.30;0.90;;;;;;;30.56;22.11;101350.88;221372;1265;139191;-89
2023/06/03 10:46:24;;;;;;;3.50;0.70;;;;;;;30.52;22.76;101347.52;221837;1266;138188;-87
2023/06/03 10:51:52;;;;;;;1.90;0.80;;;;;;;30.58;21.89;101346.77;221479;1266;138788;-88
2023/06/03 10:57:05;;;;;;;4.90;0.90;;;;;;;30.43;21.31;101343.19;221974;1266;111009;-91
2023/06/03 11:02:25;;;;;;;3.10;0.70;;;;;;;30.55;21.95;101331.02;221397;1266;139415;-86
2023/06/03 11:07:34;;;;;;;3.00;0.60;;;;;;;30.56;21.91;101334.00;222167;1264;137735;-89
2023/06/03 11:12:50;;;;;;;2.50;0.80;;;;;;;30.02;21.64;101327.20;221620;1264;140545;-91
2023/06/03 11:18:13;;;;;;;1.10;0.50;;;;;;;30.19;21.02;101317.61;221911;1266;137720;-90
2023/06/03 11:23:47;;;;;;;3.10;0.90;;;;;;;30.42;22.16;101317.17;221639;1264;139184;-90
2023/06/03 11:28:49;;;;;;;1.80;0.80;;;;;;;31.03;21.60;101312.95;221574;1265;139513;-91
2023/06/03 11:34:18;;;;;;;2.20;0.60;;;;;;;30.47;20.67;101315.91;222102;1264;96514;-87
2023/06/03 11:39:22;;;;;;;1.70;0.80;;;;;;;29.64;20.68;101317.41;221703;1264;139092;-89
2023/06/03 11:44:23;;;;;;;3.90;0.70;;;;;;;29.62;20.58;101316.13;221887;1264;138245;-90
2023/06/03 11:49:25;;;;;;;1.50;0.70;;;;;;;29.35;21.17;101312.79;221333;1266;139595;-92
2023/06/03 11:54:28;;;;;;;2.40;0.80;;;;;;;28.79;21.49;101309.31;222113;1266;137829;-91
2023/06/03 11:59:43;;;;;;;2.60;1.20;;;;;;;28.87;21.17;101301.15;221342;1265;138386;-93
2023/06/03 12:04:45;;;;;;;1.50;0.50;;;;;;;28.28;21.21;101296.50;222184;1266;137745;-89
2023/06/03 12:10:04;;;;;;;3.40;1.00;;;;;;;27.80;21.52;101291.11;221864;1266;138917;-90
2023/06/03 12:15:05;;;;;;;3.00;0.70;;;;;;;28.05;22.22;101287.24;222032;1266;110603;-90
2023/06/03 12:20:08;;;;;;;3.70;0.70;;;;;;;28.29;22.37;101286.64;221454;1264;139161;-93
2023/06/03 12:25:19;;;;;;;2.00;0.80;;;;;;;28.81;23.08;101284.64;221862;1264;137714;-92
2023/06/03 12:30:33;;;;;;;3.90;0.80;;;;;;;29.36;21.64;101279.08;221327;1266;139084;-85
2023/06/03 12:35:35;;;;;;;2.80;1.20;;;;;;;29.52;21.47;101272.05;222198;1267;138562;-89
2023/06/03 12:40:38;;;;;;;1.70;0.60;;;;;;;29.03;21.15;101268.78;221428;1264;139999;-91
2023/06/03 12:45:39;;;;;;;2.50;0.70;;;;;;;28.75;22.80;101264.88;222045;1266;96475;-92
2023/06/03 12:50:40;;;;;;;3.40;0.70;;;;;;;28.51;23.25;101259.73;221371;1265;138989;-88
2023/06/03 12:55:41;;;;;;;3.10;0.90;;;;;;;28.97;23.24;101257.68;221976;1264;137511;-90
2023/06/03 13:00:43;;;;;;;1.20;0.60;;;;;;;28.91;21.74;101257.98;221490;1266;138440;-90
2023/06/03 13:05:43;;;;;;;2.60;0.80;;;;;;;28.08;22.23;101255.65;221917;1266;137650;-89
2023/06/03 13:10:45;;;;;;;2.20;0.60;;;;;;;27.45;22.13;101246.44;221408;1266;139374;-88
2023/06/03 13:15:46;;;;;;;3.10;0.60;;;;;;;26.92;22.95;101237.11;222092;1266;97460;-87
2023/06/03 13:20:46;;;;;;;3.30;1.10;;;;;;;26.93;23.15;101234.10;221470;1266;139113;-89
2023/06/03 13:25:47;;;;;;;3.10;1.00;;;;;;;27.25;23.14;101228.14;221994;1265;137727;-91
2023/06/03 13:30:49;;;;;;;4.80;0.80;;;;;;;26.55;22.17;101230.60;221524;1265;138950;-87
2023/06/03 13:35:51;;;;;;;3.70;1.00;;;;;;;26.29;23.77;101222.82;221966;1264;138133;-89
2023/06/03 13:41:11;;;;;;;3.80;1.10;;;;;;;26.88;23.19;101217.29;220686;1268;139209;-87
2023/06/03 13:46:19;;;;;;;3.50;0.80;;;;;;;26.74;22.48;101216.73;221309;1268;138654;-90
2023/06/03 13:51:20;;;;;;;2.60;0.60;;;;;;;26.17;22.41;101213.30;220717;1273;139834;-89
2023/06/03 13:56:22;;;;;;;4.60;0.80;;;;;;;25.66;23.64;101211.77;221285;1269;137567;-93
2023/06/03 14:01:27;;;;;;;1.60;0.70;;;;;;;25.58;23.55;101217.40;220726;1269;138541;-89
2023/06/03 14:06:27;;;;;;;2.60;0.60;;;;;;;25.61;24.06;101215.45;221147;1268;137905;-88
2023/06/03 14:11:27;;;;;;;3.00;0.60;;;;;;;26.09;25.30;101202.30;221218;1264;139452;-89
2023/06/03 14:16:28;;;;;;;2.90;0.60;;;;;;;26.17;23.79;101200.67;221994;1265;137950;-90
2023/06/03 14:21:29;;;;;;;2.20;0.80;;;;;;;25.49;23.20;101199.63;221545;1264;139313;-89
2023/06/03 14:26:35;;;;;;;2.90;0.70;;;;;;;25.50;24.56;101193.41;222028;1266;137734;-92
2023/06/03 14:31:44;;;;;;;0.80;0.50;;;;;;;25.46;22.87;101193.52;221443;1266;139592;-92
2023/06/03 14:36:48;;;;;;;1.50;0.60;;;;;;;24.83;23.95;101194.91;221889;1265;139915;-91
2023/06/03 14:41:57;;;;;;;1.40;0.70;;;;;;;24.65;23.50;101196.63;221533;1266;139344;-95
2023/06/03 14:46:57;;;;;;;1.90;0.70;;;;;;;24.48;25.86;101185.29;221937;1264;137762;-87
2023/06/03 14:51:59;;;;;;;1.90;0.60;;;;;;;24.76;24.80;101173.91;221601;1264;139156;-93
2023/06/03 14:57:01;;;;;;;2.20;0.60;;;;;;;24.80;25.65;101170.13;222011;1264;137556;-93
2023/06/03 15:02:03;;;;;;;1.70;0.80;;;;;;;24.84;25.13;101165.89;221506;1264;138912;-92
2023/06/03 15:07:07;;;;;;;2.10;0.60;;;;;;;24.64;24.20;101161.74;222028;1268;137705;-91
2023/06/03 15:12:08;;;;;;;2.40;0.60;;;;;;;24.03;24.11;101162.71;221419;1264;140753;-89
2023/06/03 15:17:11;;;;;;;2.10;0.50;;;;;;;23.95;24.81;101156.61;222219;1264;137589;-91
2023/06/03 15:22:12;;;;;;;3.80;0.70;;;;;;;23.60;24.80;101144.86;221466;1266;139364;-89
2023/06/03 15:27:14;;;;;;;2.70;0.80;;;;;;;23.45;25.29;101141.70;222144;1265;96595;-88
2023/06/03 15:32:17;;;;;;;1.10;0.50;;;;;;;23.35;25.13;101137.52;221280;1268;138095;-94
2023/06/03 15:37:17;;;;;;;3.50;0.50;;;;;;;23.35;26.67;101131.73;222047;1264;137884;-91
2023/06/03 15:42:20;;;;;;;1.70;0.40;;;;;;;22.89;24.47;101123.84;221511;1266;138335;-92
2023/06/03 15:47:20;;;;;;;2.30;0.60;;;;;;;22.33;25.77;101119.56;221962;1267;137624;-91
2023/06/03 15:52:21;;;;;;;1.50;0.60;;;;;;;22.12;25.98;101118.75;221261;1266;138858;-93
2023/06/03 15:57:22;;;;;;;1.60;0.70;;;;;;;21.83;26.70;101113.23;222156;1266;96557;-93
2023/06/03 16:02:27;;;;;;;4.80;0.80;;;;;;;21.89;28.31;101114.67;221427;1266;138095;-91
2023/06/03 16:07:29;;;;;;;2.70;0.70;;;;;;;21.78;27.43;101106.62;221828;1264;137603;-94
2023/06/03 16:12:32;;;;;;;1.50;0.60;;;;;;;21.64;28.17;101106.05;221497;1266;139071;-88
2023/06/03 16:17:35;;;;;;;0.90;0.60;;;;;;;21.28;26.64;101106.13;221919;1265;137775;-90
2023/06/03 16:22:37;;;;;;;4.70;0.70;;;;;;;20.74;26.75;101094.77;221478;1266;138840;-90
2023/06/03 16:27:40;;;;;;;2.70;0.60;;;;;;;20.31;28.37;101091.60;222322;1267;96586;-92
2023/06/03 16:38:41;;;;;;;1.10;0.60;;;;;;;19.87;28.48;101091.77;222008;1264;137793;-90
2023/06/03 16:43:48;;;;;;;3.90;1.10;;;;;;;19.77;28.89;101091.39;221517;1264;138926;-87
2023/06/03 16:48:51;;;;;;;2.60;0.70;;;;;;;19.58;29.60;101092.95;221418;1264;139158;-90
2023/06/03 16:53:52;;;;;;;2.70;0.80;;;;;;;19.33;28.28;101093.16;222218;1264;137693;-88
2023/06/03 16:58:52;;;;;;;3.80;0.70;;;;;;;19.02;29.06;101090.20;221367;1268;138431;-92
2023/06/03 17:03:57;;;;;;;2.60;0.50;;;;;;;18.93;30.62;101088.73;221908;1268;96510;-91
2023/06/03 17:08:59;;;;;;;1.80;0.60;;;;;;;18.71;31.19;101088.42;221300;1268;139259;-92
2023/06/03 17:14:02;;;;;;;2.70;1.00;;;;;;;18.53;30.99;101086.16;221863;1268;137498;-88
2023/06/03 17:25:01;;;;;;;4.50;0.70;;;;;;;18.22;30.53;101085.19;221639;1264;137864;-86
2023/06/03 17:30:04;;;;;;;2.70;0.90;;;;;;;17.99;30.62;101085.54;221748;1268;138000;-89
2023/06/03 17:35:05;;;;;;;1.30;0.40;;;;;;;17.86;30.86;101086.94;221929;1264;137656;-88
2023/06/03 17:40:15;;;;;;;1.30;0.50;;;;;;;17.72;31.08;101079.88;221523;1266;139424;-90
2023/06/03 17:45:15;;;;;;;2.20;0.70;;;;;;;17.52;31.05;101079.31;222030;1267;106643;-91
2023/06/03 17:50:16;;;;;;;2.70;0.80;;;;;;;17.41;31.93;101078.34;221249;1266;140480;-89
2023/06/03 17:55:19;;;;;;;1.60;0.60;;;;;;;17.29;32.07;101075.94;221913;1268;137893;-89
2023/06/03 18:00:21;;;;;;;1.80;0.90;;;;;;;17.19;32.47;101081.48;221466;1266;139784;-91
2023/06/03 18:05:24;;;;;;;3.10;1.20;;;;;;;17.09;32.67;101081.29;221974;1264;137631;-90
2023/06/03 18:10:26;;;;;;;3.70;0.80;;;;;;;16.94;34.10;101080.73;221724;1264;139342;-92
2023/06/03 18:15:26;;;;;;;3.60;1.20;;;;;;;16.81;34.03;101081.98;222165;1264;96545;-89
2023/06/03 18:20:29;;;;;;;3.00;0.70;;;;;;;16.69;33.85;101078.21;221194;1268;139376;-90
2023/06/03 18:25:29;;;;;;;2.70;0.60;;;;;;;16.57;34.33;101078.55;221965;1268;138057;-87
2023/06/03 18:30:32;;;;;;;2.10;0.60;;;;;;;16.44;35.20;101079.95;221400;1268;139051;-90
2023/06/03 18:35:34;;;;;;;1.50;0.80;;;;;;;16.33;36.32;101082.48;221751;1264;263190;-89
2023/06/03 18:40:38;;;;;;;3.70;1.30;;;;;;;16.21;36.55;101084.48;221371;1268;139323;-91
2023/06/03 18:45:38;;;;;;;4.90;1.30;;;;;;;16.09;37.60;101090.21;222082;1268;96580;-90
2023/06/03 18:50:41;;;;;;;2.70;1.00;;;;;;;15.95;37.62;101093.16;221416;1268;138145;-92
2023/06/03 18:55:42;;;;;;;5.30;0.80;;;;;;;15.79;38.19;101090.77;221843;1268;137523;-91
2023/06/03 19:00:44;;;;;;;6.90;1.20;;;;;;;15.62;38.47;101094.48;221513;1264;138177;-92
2023/06/03 19:05:45;;;;;;;6.30;0.90;;;;;;;15.45;39.06;101093.58;222305;1264;137610;-88
2023/06/03 19:10:48;;;;;;;1.60;0.90;;;;;;;15.24;39.11;101097.39;221332;1269;138982;-89
2023/06/03 19:15:49;;;;;;;3.60;0.90;;;;;;;15.05;39.19;101096.86;222097;1264;96619;-88
2023/06/03 19:20:50;;;;;;;3.10;0.90;;;;;;;14.89;38.92;101103.05;221416;1268;138846;-92
2023/06/03 19:25:50;;;;;;;4.50;1.50;;;;;;;14.72;38.96;101106.52;221826;1264;137776;-93
2023/06/03 19:36:52;;;;;;;6.80;1.80;;;;;;;14.41;38.92;101111.18;220887;1276;137670;-93
2023/06/03 19:47:56;;;;;;;9.20;2.80;;;;;;;14.17;39.82;101118.18;220878;1274;137837;-92
2023/06/03 19:52:58;;;;;;;8.50;3.10;;;;;;;14.07;40.35;101123.14;221160;1264;139072;-91
2023/06/03 19:57:59;;;;;;;10.10;2.60;;;;;;;13.94;40.71;101130.70;222120;1269;96679;-89
2023/06/03 20:03:03;;;;;;;4.60;1.50;;;;;;;13.81;41.10;101132.58;221350;1269;138314;-92
2023/06/03 20:08:03;;;;;;;3.10;1.30;;;;;;;13.70;40.99;101135.48;222002;1264;137607;-90
2023/06/03 20:13:06;;;;;;;5.80;2.00;;;;;;;13.59;41.51;101138.13;221340;1264;140022;-91
2023/06/03 20:18:06;;;;;;;8.00;2.00;;;;;;;13.46;41.65;101139.10;221901;1267;137668;-91
2023/06/03 20:23:08;;;;;;;6.20;2.20;;;;;;;13.39;41.89;101137.84;221383;1264;139887;-89
2023/06/03 20:28:17;;;;;;;6.50;2.10;;;;;;;13.33;41.91;101136.92;222170;1264;96593;-91
2023/06/03 20:33:20;;;;;;;6.10;1.60;;;;;;;13.28;41.85;101137.08;221576;1264;138746;-89
2023/06/03 20:38:20;;;;;;;5.60;1.90;;;;;;;13.24;41.91;101138.55;222062;1264;137527;-87
2023/06/03 20:49:19;;;;;;;5.00;1.20;;;;;;;13.18;41.55;101142.58;221219;1265;144302;-89
2023/06/03 20:54:23;;;;;;;4.50;1.20;;;;;;;13.15;41.81;101145.00;221925;1269;137668;-89
2023/06/03 20:59:25;;;;;;;2.90;1.20;;;;;;;13.09;42.11;101139.61;221467;1264;138382;-93
2023/06/03 21:04:25;;;;;;;3.10;0.90;;;;;;;13.03;42.09;101145.08;221870;1264;137741;-93
2023/06/03 21:09:30;;;;;;;4.90;0.90;;;;;;;12.98;41.79;101151.49;221500;1264;140697;-91
2023/06/03 21:14:32;;;;;;;2.30;0.90;;;;;;;12.93;41.99;101148.40;221819;1264;137618;-94
2023/06/03 21:19:34;;;;;;;4.10;1.20;;;;;;;12.87;42.81;101150.75;221418;1264;139429;-90
2023/06/03 21:24:35;;;;;;;5.90;1.00;;;;;;;12.81;42.47;101153.84;222091;1264;137643;-90
2023/06/03 21:29:36;;;;;;;3.80;1.00;;;;;;;12.75;42.91;101157.38;221334;1264;138525;-89
2023/06/03 21:34:36;;;;;;;2.90;0.90;;;;;;;12.66;42.89;101155.13;221928;1264;138146;-90
2023/06/03 21:39:37;;;;;;;4.90;1.20;;;;;;;12.60;43.24;101155.82;221540;1264;138987;-92
2023/06/03 21:44:37;;;;;;;3.40;0.90;;;;;;;12.50;43.46;101155.22;221905;1264;137525;-91
2023/06/03 21:49:38;;;;;;;7.60;1.30;;;;;;;12.42;44.16;101151.54;221351;1264;139188;-90
2023/06/03 21:54:42;;;;;;;3.30;1.30;;;;;;;12.33;44.40;101152.20;221907;1264;137651;-90
2023/06/03 21:59:42;;;;;;;7.50;1.30;;;;;;;12.21;44.58;101150.34;221334;1269;139021;-89
2023/06/03 22:04:43;;;;;;;3.30;1.50;;;;;;;12.12;44.94;101156.20;222337;1267;137732;-90
2023/06/03 22:09:43;;;;;;;4.60;1.20;;;;;;;12.03;45.13;101158.10;221805;1268;142141;-91
2023/06/03 22:14:43;;;;;;;6.00;1.60;;;;;;;11.93;45.78;101154.62;222059;1264;137865;-89
2023/06/03 22:19:44;;;;;;;5.50;1.60;;;;;;;11.85;45.98;101157.15;221382;1264;138957;-89
2023/06/03 22:24:45;;;;;;;6.40;2.00;;;;;;;11.76;46.45;101154.09;222130;1264;137847;-88
2023/06/03 22:29:45;;;;;;;5.80;2.00;;;;;;;11.67;46.81;101153.12;221562;1264;139244;-87
2023/06/03 22:34:46;;;;;;;6.80;1.80;;;;;;;11.58;47.24;101156.48;222074;1264;137806;-88
2023/06/03 22:39:48;;;;;;;5.40;2.50;;;;;;;11.48;47.71;101158.39;221468;1267;139691;-88
2023/06/03 22:44:49;;;;;;;5.80;1.90;;;;;;;11.37;48.07;101160.33;222276;1264;137734;-87
2023/06/03 22:49:49;;;;;;;7.70;2.50;;;;;;;11.28;48.23;101154.55;221356;1264;140441;-87
2023/06/03 22:54:50;;;;;;;8.90;1.90;;;;;;;11.19;48.36;101157.27;221952;1264;137813;-88
2023/06/03 22:59:50;;;;;;;10.20;2.10;;;;;;;11.10;48.71;101150.00;221547;1264;139837;-87
2023/06/03 23:04:51;;;;;;;6.20;2.70;;;;;;;11.00;48.98;101151.84;222039;1264;138059;-87
2023/06/03 23:09:51;;;;;;;7.40;2.30;;;;;;;10.92;49.75;101151.42;221619;1264;140297;-87
2023/06/03 23:14:51;;;;;;;5.00;2.20;;;;;;;10.83;50.52;101148.12;222173;1264;137811;-87
2023/06/03 23:19:52;;;;;;;4.60;1.60;;;;;;;10.74;50.60;101146.66;221570;1268;139459;-87
2023/06/03 23:24:52;;;;;;;4.70;1.90;;;;;;;10.65;51.78;101146.45;221857;1268;137761;-88
2023/06/03 23:29:53;;;;;;;4.40;2.00;;;;;;;10.55;52.18;101145.36;221546;1268;139315;-87
2023/06/03 23:34:55;;;;;;;6.50;1.90;;;;;;;10.45;52.26;101142.52;222042;1264;137778;-88
2023/06/03 23:39:55;;;;;;;10.20;1.80;;;;;;;10.33;52.74;101151.84;221879;1268;138677;-87
2023/06/03 23:44:56;;;;;;;4.90;2.30;;;;;;;10.22;53.16;101145.61;221916;1268;137886;-87